Aviation Digital Data Service (ADDS)

Output produced by METARs form (1209 UTC 24 March 2017)
found at http://www.aviationweather.gov/adds/metars/
 
HTAR 241100Z 10010KT 9999 BKN034 28/18 Q1016
HTDA 241100Z 17007KT 9999 BKN017 FEW018CB 29/26 Q1010 NOSIG
TAF HTDA 240500Z 2406/2512 00000KT 9999 SCT018 FEW020CB 
     TEMPO 2408/2412 06010KT SHRA BKN023 FEW025CB 
     BECMG 2419/2422 00000KT FEW016
       
HTDO 241100Z 00000KT 9999 BKN032 28/19 Q1016 NOSIG
HTDO 240500Z 2406/2506 09010KT 9999 FEW020 
     BECMG 2411/2414 TSRA BKN024 FEW026CB BKN070 
     BECMG 2420/2423 NSW FEW020
       
HTIR 241100Z 00000KT 9999 SCT021 28/14 Q1019
HTKJ 241100Z 12010KT 9999 SCT036 32/17 Q1013 NOSIG
TAF HTKJ 240500Z 2406/2506 09010KT 9999 SCT030 
     BECMG 2411/2414 FEW038CB SCT040 
     BECMG 2419/2422 SCT028
       
HTMT 241100Z 15010KT 9999 FEW020 FEW021CB BKN080 26/24 Q1012
HTMW 241100Z 28012KT 9999 SCT028 FEW029CB BKN300 28/19 Q1015 NOSIG
HTMW 240500Z 2406/2506 12010KT 9999 FEW024 FEW025CB 
     BECMG 2412/2414 29010KT NSW FEW025 FEW026CB SCT090 
     BECMG 2416/2418 00000KT
       
HTZA 241100Z 02004KT 9999 -RA 9999 BKN018 FEW020CB BKN080 29/25 Q1010 NOSIG
HTZA 240500Z 2406/2506 33010KT 9999 BKN018 FEW020CB 
     BECMG 2410/2412 07010KT SCT022 FEW024CB SCT090 
     BECMG 2418/2420 0000KT